Terminal Aerodrome Forecast
Issued by NWS

Home | Current Version | Previous Version | Text Only | Print | Product List | Glossary On
Versions: 1 2 3 4 5 6 7 8 9 10 11 12 13
000
FTUS43 KILX 222300
TAFBMI
TAF
KBMI 222327Z 2300/2324 13005KT P6SM SKC
     FM230600 15006KT P6SM FEW250
     FM231500 19010KT P6SM BKN250
     FM232100 20010KT P6SM VCSH SCT030 BKN050=

USA.gov is the U.S. government's official web portal to all federal, state and local government web resources and services.